createdAt,value
2022-11-14T00:00:46.271Z,19.20
2022-11-14T00:03:31.647Z,18.10
2022-11-14T00:06:17.258Z,20.88
2022-11-14T00:09:02.590Z,18.63
2022-11-14T00:11:48.023Z,17.55
2022-11-14T00:14:34.630Z,17.75
2022-11-14T00:17:20.032Z,19.02
2022-11-14T00:20:08.717Z,18.73
2022-11-14T00:22:54.224Z,19.92
2022-11-14T00:25:39.648Z,19.52
2022-11-14T00:28:25.273Z,18.58
2022-11-14T00:31:11.533Z,18.42
2022-11-14T00:33:56.807Z,21.05
2022-11-14T00:36:42.406Z,23.52
2022-11-14T00:39:27.997Z,21.52
2022-11-14T00:42:13.549Z,23.77
2022-11-14T00:44:58.980Z,24.90
2022-11-14T00:47:44.493Z,20.92
2022-11-14T00:50:30.059Z,22.17
2022-11-14T00:53:16.405Z,24.60
2022-11-14T00:56:02.358Z,22.98
2022-11-14T00:58:47.557Z,24.38
2022-11-14T01:01:33.282Z,25.55
2022-11-14T01:04:18.702Z,25.50
2022-11-14T01:07:04.142Z,23.67
2022-11-14T01:09:49.665Z,24.02
2022-11-14T01:12:35.888Z,22.08
2022-11-14T01:15:21.281Z,25.65
2022-11-14T01:18:06.627Z,25.45
2022-11-14T01:20:52.191Z,26.88
2022-11-14T01:23:38.458Z,27.48
2022-11-14T01:26:24.338Z,27.70
2022-11-14T01:29:09.530Z,28.08
2022-11-14T01:31:55.312Z,28.45
2022-11-14T01:34:40.727Z,28.20
2022-11-14T01:37:25.988Z,29.13
2022-11-14T01:40:12.210Z,28.50
2022-11-14T01:43:34.978Z,29.85
2022-11-14T01:46:30.307Z,31.05
2022-11-14T01:49:26.115Z,32.13
2022-11-14T01:52:38.672Z,32.50
2022-11-14T01:55:23.857Z,32.10
2022-11-14T01:58:10.207Z,30.55
2022-11-14T02:00:57.818Z,30.38
2022-11-14T02:03:48.228Z,31.60
2022-11-14T02:06:35.443Z,33.97
2022-11-14T02:09:20.950Z,32.55
2022-11-14T02:12:12.435Z,35.53
2022-11-14T02:14:59.693Z,36.95
2022-11-14T02:17:45.154Z,36.00
2022-11-14T02:20:38.001Z,38.42
2022-11-14T02:23:32.626Z,38.47
2022-11-14T02:26:21.029Z,40.78
2022-11-14T02:29:09.866Z,37.65
2022-11-14T02:31:55.138Z,36.78
2022-11-14T02:34:40.674Z,37.92
2022-11-14T02:37:26.091Z,41.00
2022-11-14T02:40:12.170Z,40.67
2022-11-14T02:42:57.363Z,43.85
2022-11-14T02:45:43.202Z,39.17
2022-11-14T02:48:28.764Z,39.92
2022-11-14T02:51:14.408Z,41.13
2022-11-14T02:53:59.960Z,43.42
2022-11-14T02:56:45.335Z,45.10
2022-11-14T02:59:30.739Z,42.58
2022-11-14T03:02:16.223Z,44.17
2022-11-14T03:05:01.481Z,44.22
2022-11-14T03:07:47.409Z,47.03
2022-11-14T03:10:32.775Z,43.65
2022-11-14T03:13:18.334Z,46.78
2022-11-14T03:16:13.107Z,45.60
2022-11-14T03:18:58.522Z,47.35
2022-11-14T03:21:43.739Z,46.28
2022-11-14T03:24:29.228Z,50.88
2022-11-14T03:27:14.592Z,50.15
2022-11-14T03:30:00.001Z,48.30
2022-11-14T03:32:45.626Z,48.17
2022-11-14T03:35:31.042Z,46.85
2022-11-14T03:38:17.693Z,51.58
2022-11-14T03:41:03.151Z,45.97
2022-11-14T03:43:48.409Z,50.03
2022-11-14T03:46:33.834Z,47.13
2022-11-14T03:49:19.291Z,47.88
2022-11-14T03:52:04.998Z,44.17
2022-11-14T03:54:50.934Z,47.85
2022-11-14T03:57:36.113Z,48.20
2022-11-14T04:00:22.096Z,53.17
2022-11-14T04:03:07.578Z,49.63
2022-11-14T04:05:52.738Z,44.92
2022-11-14T04:08:41.152Z,47.33
2022-11-14T04:11:26.745Z,49.85
2022-11-14T04:14:12.385Z,49.55
2022-11-14T04:16:57.523Z,43.63
2022-11-14T04:19:43.132Z,49.00
2022-11-14T04:22:28.726Z,48.80
2022-11-14T04:25:14.330Z,47.60
2022-11-14T04:27:59.512Z,49.22
2022-11-14T04:30:47.607Z,49.25
2022-11-14T04:33:32.956Z,48.45
2022-11-14T04:36:18.562Z,48.17
2022-11-14T04:39:04.093Z,48.25
2022-11-14T04:41:49.558Z,50.42
2022-11-14T04:44:35.152Z,49.05
2022-11-14T04:47:20.827Z,48.75
2022-11-14T04:50:07.277Z,48.05
2022-11-14T04:52:53.760Z,46.58
2022-11-14T04:55:38.889Z,51.65
2022-11-14T04:58:24.974Z,48.22
2022-11-14T05:01:13.299Z,44.25
2022-11-14T05:03:58.475Z,47.22
2022-11-14T05:06:44.228Z,43.88
2022-11-14T05:09:29.418Z,43.67
2022-11-14T05:12:15.071Z,42.97
2022-11-14T05:15:00.948Z,43.00
2022-11-14T05:17:47.279Z,41.78
2022-11-14T05:20:32.922Z,41.42
2022-11-14T05:23:22.311Z,40.95
2022-11-14T05:26:13.016Z,41.05
2022-11-14T05:28:58.227Z,40.50
2022-11-14T05:31:44.029Z,41.38
2022-11-14T05:34:29.408Z,45.13
2022-11-14T05:37:15.014Z,39.92
2022-11-14T05:40:00.676Z,46.60
2022-11-14T05:42:45.992Z,41.97
2022-11-14T05:45:31.480Z,45.67
2022-11-14T05:48:17.196Z,43.35
2022-11-14T05:51:05.794Z,44.83
2022-11-14T05:53:51.320Z,40.55
2022-11-14T05:56:36.925Z,41.20
2022-11-14T05:59:22.623Z,42.03
2022-11-14T06:02:08.175Z,40.67
2022-11-14T06:04:53.917Z,41.65
2022-11-14T06:07:39.616Z,41.00
2022-11-14T06:10:25.941Z,36.83
2022-11-14T06:13:11.126Z,39.00
2022-11-14T06:16:02.047Z,38.90
2022-11-14T06:18:47.550Z,38.53
2022-11-14T06:21:33.276Z,41.17
2022-11-14T06:24:18.706Z,38.22
2022-11-14T06:27:04.170Z,39.83
2022-11-14T06:29:49.842Z,35.92
2022-11-14T06:32:35.273Z,38.53
2022-11-14T06:35:20.763Z,34.92
2022-11-14T06:38:06.201Z,39.25
2022-11-14T06:40:51.750Z,35.88
2022-11-14T06:43:43.896Z,41.97
2022-11-14T06:46:29.204Z,41.53
2022-11-14T06:49:14.605Z,36.03
2022-11-14T06:52:00.043Z,36.30
2022-11-14T06:54:45.334Z,35.58
2022-11-14T06:57:30.878Z,36.20
2022-11-14T07:00:16.510Z,33.47
2022-11-14T07:03:01.808Z,35.85
2022-11-14T07:05:48.202Z,31.60
2022-11-14T07:08:34.873Z,35.22
2022-11-14T07:11:26.383Z,37.45
2022-11-14T07:14:12.074Z,35.17
2022-11-14T07:16:58.542Z,36.45
2022-11-14T07:19:43.749Z,33.90
2022-11-14T07:22:29.287Z,35.92
2022-11-14T07:25:14.791Z,33.78
2022-11-14T07:28:00.277Z,32.92
2022-11-14T07:30:46.005Z,37.45
2022-11-14T07:33:32.680Z,36.20
2022-11-14T07:36:18.400Z,33.80
2022-11-14T07:39:03.876Z,35.47
2022-11-14T07:41:49.357Z,35.95
2022-11-14T07:44:35.106Z,34.17
2022-11-14T07:47:20.523Z,32.75
2022-11-14T07:50:06.580Z,34.90
2022-11-14T07:52:57.414Z,33.38
2022-11-14T07:55:42.897Z,30.25
2022-11-14T07:58:28.541Z,36.47
2022-11-14T08:01:15.911Z,34.33
2022-11-14T08:04:01.543Z,37.10
2022-11-14T08:06:47.129Z,38.45
2022-11-14T08:09:32.511Z,36.95
2022-11-14T08:12:17.953Z,32.75
2022-11-14T08:15:03.218Z,37.72
2022-11-14T08:17:48.263Z,35.80
2022-11-14T08:20:33.825Z,33.97
2022-11-14T08:23:19.730Z,28.90
2022-11-14T08:26:05.160Z,34.72
2022-11-14T08:28:54.507Z,31.55
2022-11-14T08:31:40.244Z,32.22
2022-11-14T08:34:26.377Z,34.55
2022-11-14T08:37:11.742Z,32.03
2022-11-14T08:39:57.296Z,32.60
2022-11-14T08:42:42.893Z,30.20
2022-11-14T08:45:29.907Z,31.42
2022-11-14T08:48:15.115Z,28.42
2022-11-14T08:51:06.375Z,31.52
2022-11-14T08:53:52.377Z,31.88
2022-11-14T08:56:38.124Z,27.60
2022-11-14T08:59:23.721Z,28.90
2022-11-14T09:02:16.409Z,30.02
2022-11-14T09:05:01.840Z,28.73
2022-11-14T09:07:47.285Z,27.38
2022-11-14T09:10:32.877Z,30.75
2022-11-14T09:13:18.196Z,29.73
2022-11-14T09:16:03.859Z,27.30
2022-11-14T09:18:49.312Z,29.50
2022-11-14T09:21:34.716Z,24.92
2022-11-14T09:24:20.470Z,26.40
2022-11-14T09:27:05.689Z,29.17
2022-11-14T09:29:51.440Z,27.05
2022-11-14T09:32:36.879Z,23.25
2022-11-14T09:35:22.388Z,24.80
2022-11-14T09:38:11.516Z,22.92
2022-11-14T09:41:15.827Z,26.60
2022-11-14T09:44:23.022Z,22.98
2022-11-14T09:47:20.869Z,23.48
2022-11-14T09:50:32.972Z,24.75
2022-11-14T09:53:57.249Z,24.55
2022-11-14T09:56:42.591Z,23.20
2022-11-14T09:59:27.973Z,20.25
2022-11-14T10:02:44.061Z,22.08
2022-11-14T10:05:57.379Z,21.45
2022-11-14T10:09:30.646Z,19.40
2022-11-14T10:12:42.094Z,18.52
2022-11-14T10:15:34.159Z,18.55
2022-11-14T10:18:46.715Z,16.13
2022-11-14T10:21:46.154Z,17.30
2022-11-14T10:24:49.406Z,16.73
2022-11-14T10:28:08.118Z,16.77
2022-11-14T10:31:27.007Z,17.75
2022-11-14T10:34:41.748Z,16.20
2022-11-14T10:37:37.613Z,15.75
2022-11-14T10:40:39.802Z,18.17
2022-11-14T10:43:43.842Z,18.88
2022-11-14T10:46:39.269Z,17.42
2022-11-14T10:49:26.577Z,17.33
2022-11-14T10:52:17.888Z,18.80
2022-11-14T10:55:24.825Z,15.85
2022-11-14T10:58:23.440Z,17.45
2022-11-14T11:01:44.166Z,16.02
2022-11-14T11:04:36.998Z,16.73
2022-11-14T11:07:44.932Z,17.77
2022-11-14T11:10:51.469Z,18.02
2022-11-14T11:13:51.027Z,18.33
2022-11-14T11:16:36.503Z,18.30
2022-11-14T11:19:26.507Z,18.95
2022-11-14T11:22:31.161Z,18.10
2022-11-14T11:25:27.399Z,21.35
2022-11-14T11:28:21.979Z,16.60
2022-11-14T11:31:11.029Z,17.10
2022-11-14T11:34:03.806Z,17.98
2022-11-14T11:37:03.870Z,16.90
2022-11-14T11:39:54.931Z,18.52
2022-11-14T11:43:36.859Z,18.60
2022-11-14T11:46:04.679Z,16.88
2022-11-14T11:49:02.721Z,15.77
2022-11-14T11:51:54.600Z,16.30
2022-11-14T11:55:03.335Z,18.42
2022-11-14T11:58:00.192Z,16.75
2022-11-14T12:00:45.739Z,18.65
2022-11-14T12:03:31.270Z,18.30
2022-11-14T12:06:18.466Z,19.92
2022-11-14T12:09:22.369Z,19.92
2022-11-14T12:13:02.739Z,21.25
2022-11-14T12:16:13.367Z,16.70
2022-11-14T12:19:08.025Z,17.08
2022-11-14T12:22:14.647Z,18.35
2022-11-14T12:25:56.691Z,20.35
2022-11-14T12:29:07.698Z,17.90
2022-11-14T12:32:10.529Z,18.77
2022-11-14T12:34:57.605Z,19.60
2022-11-14T12:37:52.724Z,18.88
2022-11-14T12:40:51.499Z,19.42
2022-11-14T12:43:40.283Z,17.80
2022-11-14T12:46:25.915Z,21.17
2022-11-14T12:49:48.804Z,20.83
2022-11-14T12:52:54.745Z,18.88
2022-11-14T12:55:46.108Z,21.38
2022-11-14T12:58:46.736Z,25.52
2022-11-14T13:01:53.553Z,24.50
2022-11-14T13:05:11.810Z,25.00
2022-11-14T13:08:48.959Z,31.65
2022-11-14T13:12:07.211Z,35.45
2022-11-14T13:15:14.726Z,38.67
2022-11-14T13:18:32.914Z,39.58
2022-11-14T13:21:45.632Z,41.95
2022-11-14T13:24:59.701Z,40.35
2022-11-14T13:28:06.488Z,40.75
2022-11-14T13:31:15.618Z,40.60
2022-11-14T13:34:31.137Z,37.10
2022-11-14T13:38:15.330Z,39.20
2022-11-14T13:41:24.035Z,39.13
2022-11-14T13:44:36.557Z,36.53
2022-11-14T13:48:12.020Z,37.58
2022-11-14T13:51:21.935Z,36.83
2022-11-14T13:54:17.431Z,37.75
2022-11-14T13:57:09.539Z,37.90
2022-11-14T14:00:07.020Z,42.20
2022-11-14T14:03:41.917Z,41.95
2022-11-14T14:07:07.037Z,44.13
2022-11-14T14:10:26.342Z,40.95
2022-11-14T14:14:12.111Z,41.95
2022-11-14T14:17:09.686Z,42.55
2022-11-14T14:20:36.852Z,40.42
2022-11-14T14:24:08.170Z,44.13
2022-11-14T14:27:15.343Z,41.35
2022-11-14T14:30:11.407Z,43.03
2022-11-14T14:33:23.170Z,49.75
2022-11-14T14:36:28.083Z,46.55
2022-11-14T14:39:25.134Z,45.63
2022-11-14T14:42:12.120Z,43.08
2022-11-14T14:44:58.606Z,46.58
2022-11-14T14:47:49.049Z,43.70
2022-11-14T14:50:41.614Z,45.75
2022-11-14T14:53:31.486Z,46.13
2022-11-14T14:56:26.959Z,43.30
2022-11-14T14:59:23.034Z,45.63
2022-11-14T15:02:19.896Z,43.50
2022-11-14T15:05:06.208Z,42.60
2022-11-14T15:07:56.989Z,44.47
2022-11-14T15:10:43.659Z,42.00
2022-11-14T15:13:30.833Z,44.78
2022-11-14T15:16:17.001Z,43.67
2022-11-14T15:19:03.931Z,43.83
2022-11-14T15:22:18.801Z,42.97
2022-11-14T15:25:24.778Z,46.38
2022-11-14T15:28:21.094Z,43.65
2022-11-14T15:31:15.238Z,45.83
2022-11-14T15:34:26.602Z,46.50
2022-11-14T15:37:16.165Z,44.13
2022-11-14T15:40:20.987Z,42.10
2022-11-14T15:43:43.738Z,45.90
2022-11-14T15:46:37.644Z,41.72
2022-11-14T15:49:27.694Z,41.38
2022-11-14T15:52:38.624Z,44.75
2022-11-14T15:55:24.751Z,44.45
2022-11-14T15:58:28.916Z,40.67
2022-11-14T16:01:23.670Z,40.47
2022-11-14T16:04:16.989Z,40.80
2022-11-14T16:07:02.116Z,43.15
2022-11-14T16:09:48.525Z,40.10
2022-11-14T16:12:33.776Z,43.53
2022-11-14T16:15:21.098Z,41.60
2022-11-14T16:18:06.493Z,40.80
2022-11-14T16:20:51.871Z,41.67
2022-11-14T16:23:37.168Z,42.60
2022-11-14T16:26:22.861Z,40.53
2022-11-14T16:29:08.586Z,37.45
2022-11-14T16:31:55.128Z,36.38
2022-11-14T16:34:40.647Z,39.22
2022-11-14T16:37:26.120Z,37.13
2022-11-14T16:40:43.752Z,40.80
2022-11-14T16:43:29.550Z,39.42
2022-11-14T16:46:15.535Z,41.78
2022-11-14T16:49:00.686Z,38.92
2022-11-14T16:51:50.359Z,42.53
2022-11-14T16:54:36.150Z,41.63
2022-11-14T16:57:21.939Z,40.95
2022-11-14T17:00:12.219Z,38.85
2022-11-14T17:02:57.727Z,39.88
2022-11-14T17:05:46.534Z,39.83
2022-11-14T17:08:32.061Z,38.92
2022-11-14T17:11:17.925Z,39.85
2022-11-14T17:14:03.284Z,38.60
2022-11-14T17:16:48.328Z,43.45
2022-11-14T17:19:33.774Z,41.75
2022-11-14T17:22:19.957Z,40.08
2022-11-14T17:25:05.938Z,42.90
2022-11-14T17:27:51.658Z,40.72
2022-11-14T17:30:43.468Z,38.40
2022-11-14T17:33:29.359Z,39.72
2022-11-14T17:36:15.047Z,40.08
2022-11-14T17:39:00.689Z,37.70
2022-11-14T17:41:46.342Z,38.50
2022-11-14T17:44:31.895Z,37.63
2022-11-14T17:47:17.785Z,42.42
2022-11-14T17:50:04.280Z,38.90
2022-11-14T17:52:49.546Z,43.38
2022-11-14T17:55:35.154Z,38.47
2022-11-14T17:58:20.723Z,40.85
2022-11-14T18:01:15.409Z,39.78
2022-11-14T18:04:05.703Z,37.22
2022-11-14T18:06:52.906Z,39.05
2022-11-14T18:09:38.306Z,38.75
2022-11-14T18:12:23.983Z,38.50
2022-11-14T18:15:10.471Z,34.90
2022-11-14T18:17:56.150Z,37.45
2022-11-14T18:20:41.744Z,34.53
2022-11-14T18:23:27.301Z,35.40
2022-11-14T18:26:15.778Z,34.20
2022-11-14T18:29:02.202Z,32.05
2022-11-14T18:31:48.157Z,34.08
2022-11-14T18:34:33.498Z,32.30
2022-11-14T18:37:18.897Z,33.90
2022-11-14T18:40:04.718Z,37.50
2022-11-14T18:42:50.173Z,33.63
2022-11-14T18:45:35.663Z,30.65
2022-11-14T18:48:21.547Z,31.95
2022-11-14T18:51:11.306Z,34.50
2022-11-14T18:53:59.254Z,31.00
2022-11-14T18:56:44.942Z,31.45
2022-11-14T18:59:30.767Z,30.52
2022-11-14T19:02:16.334Z,31.60
2022-11-14T19:05:01.954Z,28.83
2022-11-14T19:07:47.119Z,29.58
2022-11-14T19:10:33.018Z,28.55
2022-11-14T19:13:18.600Z,28.85
2022-11-14T19:16:05.414Z,30.63
2022-11-14T19:18:51.041Z,27.83
2022-11-14T19:21:37.414Z,25.25
2022-11-14T19:24:22.915Z,28.02
2022-11-14T19:27:09.533Z,30.23
2022-11-14T19:29:54.954Z,27.63
2022-11-14T19:32:40.447Z,28.92
2022-11-14T19:35:25.970Z,27.30
2022-11-14T19:38:11.442Z,25.52
2022-11-14T19:41:02.098Z,23.48
2022-11-14T19:43:50.226Z,23.65
2022-11-14T19:46:36.733Z,24.23
2022-11-14T19:49:22.259Z,24.20
2022-11-14T19:52:08.391Z,26.63
2022-11-14T19:54:54.299Z,25.38
2022-11-14T19:57:39.835Z,23.42
2022-11-14T20:00:26.675Z,24.27
2022-11-14T20:03:12.135Z,21.30
2022-11-14T20:05:58.151Z,25.13
2022-11-14T20:08:43.433Z,21.00
2022-11-14T20:11:30.550Z,21.17
2022-11-14T20:14:16.818Z,22.85
2022-11-14T20:17:01.935Z,18.77
2022-11-14T20:19:47.466Z,18.92
2022-11-14T20:22:33.002Z,18.63
2022-11-14T20:25:18.566Z,19.70
2022-11-14T20:28:08.307Z,24.17
2022-11-14T20:30:53.803Z,21.73
2022-11-14T20:33:42.815Z,21.90
2022-11-14T20:36:35.361Z,19.45
2022-11-14T20:39:33.137Z,17.90
2022-11-14T20:42:18.713Z,22.33
2022-11-14T20:45:05.025Z,19.85
2022-11-14T20:47:50.559Z,19.75
2022-11-14T20:50:35.970Z,24.40
2022-11-14T20:53:21.506Z,21.35
2022-11-14T20:56:08.305Z,23.08
2022-11-14T20:58:54.015Z,23.38
2022-11-14T21:01:43.812Z,23.95
2022-11-14T21:04:29.798Z,22.23
2022-11-14T21:07:15.397Z,25.63
2022-11-14T21:10:19.145Z,23.73
2022-11-14T21:13:26.863Z,25.38
2022-11-14T21:16:17.262Z,26.08
2022-11-14T21:19:04.646Z,24.80
2022-11-14T21:21:49.982Z,25.15
2022-11-14T21:24:39.551Z,24.65
2022-11-14T21:27:25.213Z,23.38
2022-11-14T21:30:11.091Z,25.67
2022-11-14T21:32:56.273Z,27.25
2022-11-14T21:35:41.619Z,26.40
2022-11-14T21:38:27.407Z,26.70
2022-11-14T21:41:18.150Z,27.50
2022-11-14T21:44:04.418Z,24.88
2022-11-14T21:46:49.830Z,25.58
2022-11-14T21:49:35.474Z,24.80
2022-11-14T21:52:20.910Z,25.02
2022-11-14T21:55:07.213Z,27.85
2022-11-14T21:57:55.950Z,27.73
2022-11-14T22:00:41.918Z,25.20
2022-11-14T22:03:46.183Z,25.52
2022-11-14T22:06:31.659Z,25.17
2022-11-14T22:09:17.131Z,24.33
2022-11-14T22:12:02.865Z,27.85
2022-11-14T22:14:48.365Z,26.02
2022-11-14T22:17:33.864Z,26.80
2022-11-14T22:20:19.551Z,28.80
2022-11-14T22:23:05.051Z,30.67
2022-11-14T22:25:59.569Z,27.58
2022-11-14T22:28:45.194Z,27.90
2022-11-14T22:31:30.346Z,26.58
2022-11-14T22:34:15.874Z,27.40
2022-11-14T22:37:01.379Z,26.23
2022-11-14T22:39:46.780Z,30.40
2022-11-14T22:42:32.300Z,27.73
2022-11-14T22:45:18.102Z,28.02
2022-11-14T22:48:03.614Z,27.92
2022-11-14T22:51:17.270Z,26.77
2022-11-14T22:54:02.740Z,27.52
2022-11-14T22:56:48.199Z,28.02
2022-11-14T22:59:33.415Z,30.02
2022-11-14T23:02:19.005Z,25.92
2022-11-14T23:05:05.251Z,32.00
2022-11-14T23:07:50.534Z,25.40
2022-11-14T23:10:36.508Z,33.17
2022-11-14T23:13:21.687Z,25.92
2022-11-14T23:16:12.997Z,28.15
2022-11-14T23:19:01.974Z,26.73
2022-11-14T23:21:47.562Z,30.85
2022-11-14T23:24:32.938Z,26.15
2022-11-14T23:27:18.468Z,28.77
2022-11-14T23:30:04.829Z,26.33
2022-11-14T23:32:49.887Z,27.40
2022-11-14T23:35:35.431Z,24.63
2022-11-14T23:38:21.150Z,24.05
2022-11-14T23:41:07.249Z,25.05
2022-11-14T23:43:52.964Z,26.33
2022-11-14T23:46:38.256Z,25.75
2022-11-14T23:49:23.825Z,31.90
2022-11-14T23:52:09.295Z,34.25
2022-11-14T23:54:54.841Z,29.80
2022-11-14T23:57:40.434Z,30.95
